sensor_id;sensor_type;location;lat;lon;timestamp;temperature;humidity
45765;DHT22;31474;45.332;10.230;2022-12-29T00:02:14;9.80;99.90
45765;DHT22;31474;45.332;10.230;2022-12-29T00:04:40;9.80;99.90
45765;DHT22;31474;45.332;10.230;2022-12-29T00:07:06;9.80;99.90
45765;DHT22;31474;45.332;10.230;2022-12-29T00:09:32;9.80;99.90
45765;DHT22;31474;45.332;10.230;2022-12-29T00:11:58;9.80;99.90
45765;DHT22;31474;45.332;10.230;2022-12-29T00:14:24;9.80;99.90
45765;DHT22;31474;45.332;10.230;2022-12-29T00:17:09;9.70;99.90
45765;DHT22;31474;45.332;10.230;2022-12-29T00:19:34;9.70;99.90
45765;DHT22;31474;45.332;10.230;2022-12-29T00:22:19;9.70;99.90
45765;DHT22;31474;45.332;10.230;2022-12-29T00:25:04;9.80;99.90
45765;DHT22;31474;45.332;10.230;2022-12-29T00:27:31;9.80;99.90
45765;DHT22;31474;45.332;10.230;2022-12-29T00:30:20;9.80;99.90
45765;DHT22;31474;45.332;10.230;2022-12-29T00:33:13;9.80;99.90
45765;DHT22;31474;45.332;10.230;2022-12-29T00:36:16;9.80;99.90
45765;DHT22;31474;45.332;10.230;2022-12-29T00:38:48;9.80;99.90
45765;DHT22;31474;45.332;10.230;2022-12-29T00:41:33;9.80;99.90
45765;DHT22;31474;45.332;10.230;2022-12-29T00:44:18;9.80;99.90
45765;DHT22;31474;45.332;10.230;2022-12-29T00:46:43;9.80;99.90
45765;DHT22;31474;45.332;10.230;2022-12-29T00:49:11;9.80;99.90
45765;DHT22;31474;45.332;10.230;2022-12-29T00:51:57;9.80;99.90
45765;DHT22;31474;45.332;10.230;2022-12-29T00:54:23;9.80;99.90
45765;DHT22;31474;45.332;10.230;2022-12-29T00:56:50;9.80;99.90
45765;DHT22;31474;45.332;10.230;2022-12-29T00:59:17;9.80;99.90
45765;DHT22;31474;45.332;10.230;2022-12-29T01:01:44;9.80;99.90
45765;DHT22;31474;45.332;10.230;2022-12-29T01:04:10;9.80;99.90
45765;DHT22;31474;45.332;10.230;2022-12-29T01:06:37;9.80;99.90
45765;DHT22;31474;45.332;10.230;2022-12-29T01:09:04;9.80;99.90
45765;DHT22;31474;45.332;10.230;2022-12-29T01:11:48;9.80;99.90
45765;DHT22;31474;45.332;10.230;2022-12-29T01:14:14;9.80;99.90
45765;DHT22;31474;45.332;10.230;2022-12-29T01:16:40;9.80;99.90
45765;DHT22;31474;45.332;10.230;2022-12-29T01:19:06;9.80;99.90
45765;DHT22;31474;45.332;10.230;2022-12-29T01:21:32;9.80;99.90
45765;DHT22;31474;45.332;10.230;2022-12-29T01:23:58;9.80;99.90
45765;DHT22;31474;45.332;10.230;2022-12-29T01:26:23;9.80;99.90
45765;DHT22;31474;45.332;10.230;2022-12-29T01:28:49;9.80;99.90
45765;DHT22;31474;45.332;10.230;2022-12-29T01:31:15;9.80;99.90
45765;DHT22;31474;45.332;10.230;2022-12-29T01:33:41;9.70;99.90
45765;DHT22;31474;45.332;10.230;2022-12-29T01:36:10;9.70;99.90
45765;DHT22;31474;45.332;10.230;2022-12-29T01:38:37;9.70;99.90
45765;DHT22;31474;45.332;10.230;2022-12-29T01:41:03;9.80;99.90
45765;DHT22;31474;45.332;10.230;2022-12-29T01:43:39;9.80;99.90
45765;DHT22;31474;45.332;10.230;2022-12-29T01:48:52;9.80;99.90
45765;DHT22;31474;45.332;10.230;2022-12-29T01:51:22;9.80;99.90
45765;DHT22;31474;45.332;10.230;2022-12-29T01:53:48;9.70;99.90
45765;DHT22;31474;45.332;10.230;2022-12-29T01:56:17;9.70;99.90
45765;DHT22;31474;45.332;10.230;2022-12-29T01:58:47;9.80;99.90
45765;DHT22;31474;45.332;10.230;2022-12-29T02:01:14;9.80;99.90
45765;DHT22;31474;45.332;10.230;2022-12-29T02:03:41;9.70;99.90
45765;DHT22;31474;45.332;10.230;2022-12-29T02:06:14;9.70;99.90
45765;DHT22;31474;45.332;10.230;2022-12-29T02:08:43;9.70;99.90
45765;DHT22;31474;45.332;10.230;2022-12-29T02:11:11;9.70;99.90
45765;DHT22;31474;45.332;10.230;2022-12-29T02:13:38;9.70;99.90
45765;DHT22;31474;45.332;10.230;2022-12-29T02:41:08;9.70;99.90
45765;DHT22;31474;45.332;10.230;2022-12-29T02:46:52;9.70;99.90
45765;DHT22;31474;45.332;10.230;2022-12-29T02:49:57;9.70;99.90
45765;DHT22;31474;45.332;10.230;2022-12-29T02:52:26;9.80;99.90
45765;DHT22;31474;45.332;10.230;2022-12-29T02:54:54;9.80;99.90
45765;DHT22;31474;45.332;10.230;2022-12-29T02:59:49;9.70;99.90
45765;DHT22;31474;45.332;10.230;2022-12-29T03:07:43;9.70;99.90
45765;DHT22;31474;45.332;10.230;2022-12-29T03:16:14;9.70;99.90
45765;DHT22;31474;45.332;10.230;2022-12-29T03:18:51;9.70;99.90
45765;DHT22;31474;45.332;10.230;2022-12-29T03:21:24;9.70;99.90
45765;DHT22;31474;45.332;10.230;2022-12-29T03:24:11;9.70;99.90
45765;DHT22;31474;45.332;10.230;2022-12-29T03:26:37;9.70;99.90
45765;DHT22;31474;45.332;10.230;2022-12-29T03:29:05;9.70;99.90
45765;DHT22;31474;45.332;10.230;2022-12-29T03:31:34;9.70;99.90
45765;DHT22;31474;45.332;10.230;2022-12-29T03:34:01;9.70;99.90
45765;DHT22;31474;45.332;10.230;2022-12-29T03:36:38;9.70;99.90
45765;DHT22;31474;45.332;10.230;2022-12-29T03:39:12;9.70;99.90
45765;DHT22;31474;45.332;10.230;2022-12-29T03:41:40;9.80;99.90
45765;DHT22;31474;45.332;10.230;2022-12-29T03:44:07;9.70;99.90
45765;DHT22;31474;45.332;10.230;2022-12-29T03:46:33;9.70;99.90
45765;DHT22;31474;45.332;10.230;2022-12-29T03:48:58;9.70;99.90
45765;DHT22;31474;45.332;10.230;2022-12-29T03:51:24;9.70;99.90
45765;DHT22;31474;45.332;10.230;2022-12-29T03:53:50;9.70;99.90
45765;DHT22;31474;45.332;10.230;2022-12-29T03:56:15;9.70;99.90
45765;DHT22;31474;45.332;10.230;2022-12-29T03:58:41;9.70;99.90
45765;DHT22;31474;45.332;10.230;2022-12-29T04:01:06;9.70;99.90
45765;DHT22;31474;45.332;10.230;2022-12-29T04:03:32;9.80;99.90
45765;DHT22;31474;45.332;10.230;2022-12-29T04:05:58;9.80;99.90
45765;DHT22;31474;45.332;10.230;2022-12-29T04:08:23;9.70;99.90
45765;DHT22;31474;45.332;10.230;2022-12-29T04:10:49;9.70;99.90
45765;DHT22;31474;45.332;10.230;2022-12-29T04:13:15;9.80;99.90
45765;DHT22;31474;45.332;10.230;2022-12-29T04:15:42;9.80;99.90
45765;DHT22;31474;45.332;10.230;2022-12-29T04:18:08;9.80;99.90
45765;DHT22;31474;45.332;10.230;2022-12-29T04:20:34;9.80;99.90
45765;DHT22;31474;45.332;10.230;2022-12-29T04:23:18;9.80;99.90
45765;DHT22;31474;45.332;10.230;2022-12-29T04:25:47;9.80;99.90
45765;DHT22;31474;45.332;10.230;2022-12-29T04:28:13;9.80;99.90
45765;DHT22;31474;45.332;10.230;2022-12-29T04:30:39;9.80;99.90
45765;DHT22;31474;45.332;10.230;2022-12-29T04:33:05;9.80;99.90
45765;DHT22;31474;45.332;10.230;2022-12-29T04:35:30;9.80;99.90
45765;DHT22;31474;45.332;10.230;2022-12-29T04:37:59;9.80;99.90
45765;DHT22;31474;45.332;10.230;2022-12-29T04:40:24;9.80;99.90
45765;DHT22;31474;45.332;10.230;2022-12-29T04:42:50;9.80;99.90
45765;DHT22;31474;45.332;10.230;2022-12-29T04:45:16;9.80;99.90
45765;DHT22;31474;45.332;10.230;2022-12-29T04:47:42;9.70;99.90
45765;DHT22;31474;45.332;10.230;2022-12-29T04:50:08;9.80;99.90
45765;DHT22;31474;45.332;10.230;2022-12-29T04:52:34;9.70;99.90
45765;DHT22;31474;45.332;10.230;2022-12-29T04:55:00;9.70;99.90
45765;DHT22;31474;45.332;10.230;2022-12-29T04:57:26;9.70;99.90
45765;DHT22;31474;45.332;10.230;2022-12-29T04:59:51;9.70;99.90
45765;DHT22;31474;45.332;10.230;2022-12-29T05:02:17;9.70;99.90
45765;DHT22;31474;45.332;10.230;2022-12-29T05:04:42;9.70;99.90
45765;DHT22;31474;45.332;10.230;2022-12-29T05:07:08;9.80;99.90
45765;DHT22;31474;45.332;10.230;2022-12-29T05:09:34;9.80;99.90
45765;DHT22;31474;45.332;10.230;2022-12-29T05:12:00;9.70;99.90
45765;DHT22;31474;45.332;10.230;2022-12-29T05:14:25;9.70;99.90
45765;DHT22;31474;45.332;10.230;2022-12-29T05:16:51;9.70;99.90
45765;DHT22;31474;45.332;10.230;2022-12-29T05:19:17;9.70;99.90
45765;DHT22;31474;45.332;10.230;2022-12-29T05:21:43;9.80;99.90
45765;DHT22;31474;45.332;10.230;2022-12-29T05:24:08;9.80;99.90
45765;DHT22;31474;45.332;10.230;2022-12-29T05:26:34;9.80;99.90
45765;DHT22;31474;45.332;10.230;2022-12-29T05:29:00;9.80;99.90
45765;DHT22;31474;45.332;10.230;2022-12-29T05:31:26;9.80;99.90
45765;DHT22;31474;45.332;10.230;2022-12-29T05:33:51;9.80;99.90
45765;DHT22;31474;45.332;10.230;2022-12-29T05:36:17;9.80;99.90
45765;DHT22;31474;45.332;10.230;2022-12-29T05:38:43;9.80;99.90
45765;DHT22;31474;45.332;10.230;2022-12-29T05:41:09;9.80;99.90
45765;DHT22;31474;45.332;10.230;2022-12-29T05:43:34;9.80;99.90
45765;DHT22;31474;45.332;10.230;2022-12-29T05:46:00;9.80;99.90
45765;DHT22;31474;45.332;10.230;2022-12-29T05:48:25;9.70;99.90
45765;DHT22;31474;45.332;10.230;2022-12-29T05:50:51;9.80;99.90
45765;DHT22;31474;45.332;10.230;2022-12-29T05:53:18;9.80;99.90
45765;DHT22;31474;45.332;10.230;2022-12-29T05:55:44;9.80;99.90
45765;DHT22;31474;45.332;10.230;2022-12-29T05:58:11;9.80;99.90
45765;DHT22;31474;45.332;10.230;2022-12-29T06:00:37;9.80;99.90
45765;DHT22;31474;45.332;10.230;2022-12-29T06:03:03;9.80;99.90
45765;DHT22;31474;45.332;10.230;2022-12-29T06:05:29;9.80;99.90
45765;DHT22;31474;45.332;10.230;2022-12-29T06:07:55;9.80;99.90
45765;DHT22;31474;45.332;10.230;2022-12-29T06:10:21;9.80;99.90
45765;DHT22;31474;45.332;10.230;2022-12-29T06:12:46;9.70;99.90
45765;DHT22;31474;45.332;10.230;2022-12-29T06:15:12;9.80;99.90
45765;DHT22;31474;45.332;10.230;2022-12-29T06:17:39;9.80;99.90
45765;DHT22;31474;45.332;10.230;2022-12-29T06:20:05;9.80;99.90
45765;DHT22;31474;45.332;10.230;2022-12-29T06:22:31;9.80;99.90
45765;DHT22;31474;45.332;10.230;2022-12-29T06:24:56;9.80;99.90
45765;DHT22;31474;45.332;10.230;2022-12-29T06:27:22;9.70;99.90
45765;DHT22;31474;45.332;10.230;2022-12-29T06:29:48;9.80;99.90
45765;DHT22;31474;45.332;10.230;2022-12-29T06:32:15;9.80;99.90
45765;DHT22;31474;45.332;10.230;2022-12-29T06:34:40;9.70;99.90
45765;DHT22;31474;45.332;10.230;2022-12-29T06:37:06;9.70;99.90
45765;DHT22;31474;45.332;10.230;2022-12-29T06:39:32;9.70;99.90
45765;DHT22;31474;45.332;10.230;2022-12-29T06:41:58;9.70;99.90
45765;DHT22;31474;45.332;10.230;2022-12-29T06:44:23;9.70;99.90
45765;DHT22;31474;45.332;10.230;2022-12-29T06:46:50;9.70;99.90
45765;DHT22;31474;45.332;10.230;2022-12-29T06:49:16;9.70;99.90
45765;DHT22;31474;45.332;10.230;2022-12-29T06:51:41;9.70;99.90
45765;DHT22;31474;45.332;10.230;2022-12-29T06:54:07;9.70;99.90
45765;DHT22;31474;45.332;10.230;2022-12-29T06:56:33;9.70;99.90
45765;DHT22;31474;45.332;10.230;2022-12-29T06:58:58;9.70;99.90
45765;DHT22;31474;45.332;10.230;2022-12-29T07:01:27;9.70;99.90
45765;DHT22;31474;45.332;10.230;2022-12-29T07:03:53;9.70;99.90
45765;DHT22;31474;45.332;10.230;2022-12-29T07:06:18;9.70;99.90
45765;DHT22;31474;45.332;10.230;2022-12-29T07:08:44;9.70;99.90
45765;DHT22;31474;45.332;10.230;2022-12-29T07:11:10;9.70;99.90
45765;DHT22;31474;45.332;10.230;2022-12-29T07:13:36;9.70;99.90
45765;DHT22;31474;45.332;10.230;2022-12-29T07:16:06;9.70;99.90
45765;DHT22;31474;45.332;10.230;2022-12-29T07:18:32;9.70;99.90
45765;DHT22;31474;45.332;10.230;2022-12-29T07:20:57;9.70;99.90
45765;DHT22;31474;45.332;10.230;2022-12-29T07:23:23;9.70;99.90
45765;DHT22;31474;45.332;10.230;2022-12-29T07:25:49;9.60;99.90
45765;DHT22;31474;45.332;10.230;2022-12-29T07:28:14;9.60;99.90
45765;DHT22;31474;45.332;10.230;2022-12-29T07:30:40;9.70;99.90
45765;DHT22;31474;45.332;10.230;2022-12-29T07:33:05;9.70;99.90
45765;DHT22;31474;45.332;10.230;2022-12-29T07:35:32;9.70;99.90
45765;DHT22;31474;45.332;10.230;2022-12-29T07:37:58;9.70;99.90
45765;DHT22;31474;45.332;10.230;2022-12-29T07:40:24;9.70;99.90
45765;DHT22;31474;45.332;10.230;2022-12-29T07:42:49;9.80;99.90
45765;DHT22;31474;45.332;10.230;2022-12-29T07:45:15;9.80;99.90
45765;DHT22;31474;45.332;10.230;2022-12-29T07:47:40;9.80;99.90
45765;DHT22;31474;45.332;10.230;2022-12-29T07:50:06;9.80;99.90
45765;DHT22;31474;45.332;10.230;2022-12-29T07:52:32;9.80;99.90
45765;DHT22;31474;45.332;10.230;2022-12-29T07:54:57;9.80;99.90
45765;DHT22;31474;45.332;10.230;2022-12-29T07:57:23;9.80;99.90
45765;DHT22;31474;45.332;10.230;2022-12-29T07:59:49;9.80;99.90
45765;DHT22;31474;45.332;10.230;2022-12-29T08:02:14;9.80;99.90
45765;DHT22;31474;45.332;10.230;2022-12-29T08:04:40;9.80;99.90
45765;DHT22;31474;45.332;10.230;2022-12-29T08:07:06;9.80;99.90
45765;DHT22;31474;45.332;10.230;2022-12-29T08:09:31;9.80;99.90
45765;DHT22;31474;45.332;10.230;2022-12-29T08:11:57;9.80;99.90
45765;DHT22;31474;45.332;10.230;2022-12-29T08:14:22;9.90;99.90
45765;DHT22;31474;45.332;10.230;2022-12-29T08:16:48;9.80;99.90
45765;DHT22;31474;45.332;10.230;2022-12-29T08:19:14;9.90;99.90
45765;DHT22;31474;45.332;10.230;2022-12-29T08:21:40;9.90;99.90
45765;DHT22;31474;45.332;10.230;2022-12-29T08:24:06;9.90;99.90
45765;DHT22;31474;45.332;10.230;2022-12-29T08:26:33;9.90;99.90
45765;DHT22;31474;45.332;10.230;2022-12-29T08:28:58;9.90;99.90
45765;DHT22;31474;45.332;10.230;2022-12-29T08:31:24;9.80;99.90
45765;DHT22;31474;45.332;10.230;2022-12-29T08:33:50;9.80;99.90
45765;DHT22;31474;45.332;10.230;2022-12-29T08:36:16;9.80;99.90
45765;DHT22;31474;45.332;10.230;2022-12-29T08:38:41;9.80;99.90
45765;DHT22;31474;45.332;10.230;2022-12-29T08:41:07;9.80;99.90
45765;DHT22;31474;45.332;10.230;2022-12-29T08:43:32;9.80;99.90
45765;DHT22;31474;45.332;10.230;2022-12-29T08:45:59;9.90;99.90
45765;DHT22;31474;45.332;10.230;2022-12-29T08:48:25;9.90;99.90
45765;DHT22;31474;45.332;10.230;2022-12-29T08:50:51;9.90;99.90
45765;DHT22;31474;45.332;10.230;2022-12-29T08:53:18;9.90;99.90
45765;DHT22;31474;45.332;10.230;2022-12-29T08:55:47;9.90;99.90
45765;DHT22;31474;45.332;10.230;2022-12-29T08:58:13;9.90;99.90
45765;DHT22;31474;45.332;10.230;2022-12-29T09:00:41;10.00;99.90
45765;DHT22;31474;45.332;10.230;2022-12-29T09:03:06;10.00;99.90
45765;DHT22;31474;45.332;10.230;2022-12-29T09:05:32;9.90;99.90
45765;DHT22;31474;45.332;10.230;2022-12-29T09:07:59;9.90;99.90
45765;DHT22;31474;45.332;10.230;2022-12-29T09:10:24;9.80;99.90
45765;DHT22;31474;45.332;10.230;2022-12-29T09:12:50;9.70;99.90
45765;DHT22;31474;45.332;10.230;2022-12-29T09:15:15;9.80;99.90
45765;DHT22;31474;45.332;10.230;2022-12-29T09:17:41;9.80;99.90
45765;DHT22;31474;45.332;10.230;2022-12-29T09:20:15;9.80;99.90
45765;DHT22;31474;45.332;10.230;2022-12-29T09:22:42;9.90;99.90
45765;DHT22;31474;45.332;10.230;2022-12-29T09:25:08;9.90;99.90
45765;DHT22;31474;45.332;10.230;2022-12-29T09:27:34;9.90;99.90
45765;DHT22;31474;45.332;10.230;2022-12-29T09:30:00;9.90;99.90
45765;DHT22;31474;45.332;10.230;2022-12-29T09:32:26;9.90;99.90
45765;DHT22;31474;45.332;10.230;2022-12-29T09:34:51;9.90;99.90
45765;DHT22;31474;45.332;10.230;2022-12-29T09:37:17;9.90;99.90
45765;DHT22;31474;45.332;10.230;2022-12-29T09:39:43;10.00;99.90
45765;DHT22;31474;45.332;10.230;2022-12-29T09:42:14;10.00;99.90
45765;DHT22;31474;45.332;10.230;2022-12-29T09:47:11;10.00;99.90
45765;DHT22;31474;45.332;10.230;2022-12-29T09:49:52;10.10;99.90
45765;DHT22;31474;45.332;10.230;2022-12-29T09:52:27;10.10;99.90
45765;DHT22;31474;45.332;10.230;2022-12-29T09:55:21;10.20;99.90
45765;DHT22;31474;45.332;10.230;2022-12-29T09:57:59;10.20;99.90
45765;DHT22;31474;45.332;10.230;2022-12-29T10:00:37;10.30;99.90
45765;DHT22;31474;45.332;10.230;2022-12-29T10:03:14;10.20;99.90
45765;DHT22;31474;45.332;10.230;2022-12-29T10:17:27;10.20;99.90
45765;DHT22;31474;45.332;10.230;2022-12-29T10:20:01;10.20;99.90
45765;DHT22;31474;45.332;10.230;2022-12-29T10:25:14;10.20;99.90
45765;DHT22;31474;45.332;10.230;2022-12-29T10:27:42;10.20;99.90
45765;DHT22;31474;45.332;10.230;2022-12-29T10:30:12;10.20;99.90
45765;DHT22;31474;45.332;10.230;2022-12-29T10:32:44;10.20;99.90
45765;DHT22;31474;45.332;10.230;2022-12-29T10:35:16;10.30;99.90
45765;DHT22;31474;45.332;10.230;2022-12-29T10:40:40;10.40;99.90
45765;DHT22;31474;45.332;10.230;2022-12-29T10:43:24;10.40;99.90
45765;DHT22;31474;45.332;10.230;2022-12-29T10:45:52;10.40;99.90
45765;DHT22;31474;45.332;10.230;2022-12-29T10:48:32;10.50;99.90
45765;DHT22;31474;45.332;10.230;2022-12-29T10:51:00;10.50;99.90
45765;DHT22;31474;45.332;10.230;2022-12-29T10:53:43;10.50;99.90
45765;DHT22;31474;45.332;10.230;2022-12-29T10:56:38;10.50;99.90
45765;DHT22;31474;45.332;10.230;2022-12-29T10:59:26;10.40;99.90
45765;DHT22;31474;45.332;10.230;2022-12-29T11:02:16;10.40;99.90
45765;DHT22;31474;45.332;10.230;2022-12-29T11:07:24;10.50;99.90
45765;DHT22;31474;45.332;10.230;2022-12-29T11:09:51;10.40;99.90
45765;DHT22;31474;45.332;10.230;2022-12-29T11:14:49;10.50;99.90
45765;DHT22;31474;45.332;10.230;2022-12-29T11:17:25;10.50;99.90
45765;DHT22;31474;45.332;10.230;2022-12-29T11:19:51;10.50;99.90
45765;DHT22;31474;45.332;10.230;2022-12-29T11:22:22;10.50;99.90
45765;DHT22;31474;45.332;10.230;2022-12-29T11:24:50;10.50;99.90
45765;DHT22;31474;45.332;10.230;2022-12-29T11:27:24;10.50;99.90
45765;DHT22;31474;45.332;10.230;2022-12-29T11:29:51;10.50;99.90
45765;DHT22;31474;45.332;10.230;2022-12-29T11:32:25;10.50;99.90
45765;DHT22;31474;45.332;10.230;2022-12-29T11:34:52;10.50;99.90
45765;DHT22;31474;45.332;10.230;2022-12-29T11:37:28;10.40;99.90
45765;DHT22;31474;45.332;10.230;2022-12-29T11:40:05;10.40;99.90
45765;DHT22;31474;45.332;10.230;2022-12-29T11:42:46;10.40;99.90
45765;DHT22;31474;45.332;10.230;2022-12-29T11:45:27;10.40;99.90
45765;DHT22;31474;45.332;10.230;2022-12-29T11:50:37;10.40;99.90
45765;DHT22;31474;45.332;10.230;2022-12-29T11:55:57;10.50;99.90
45765;DHT22;31474;45.332;10.230;2022-12-29T11:58:37;10.50;99.90
45765;DHT22;31474;45.332;10.230;2022-12-29T12:01:16;10.50;99.90
45765;DHT22;31474;45.332;10.230;2022-12-29T12:04:11;10.50;99.90
45765;DHT22;31474;45.332;10.230;2022-12-29T12:06:45;10.50;99.90
45765;DHT22;31474;45.332;10.230;2022-12-29T12:09:27;10.40;99.90
45765;DHT22;31474;45.332;10.230;2022-12-29T12:11:55;10.50;99.90
45765;DHT22;31474;45.332;10.230;2022-12-29T12:14:35;10.50;99.90
45765;DHT22;31474;45.332;10.230;2022-12-29T12:17:25;10.50;99.90
45765;DHT22;31474;45.332;10.230;2022-12-29T12:25:39;10.50;99.90
45765;DHT22;31474;45.332;10.230;2022-12-29T12:28:17;10.60;99.90
45765;DHT22;31474;45.332;10.230;2022-12-29T12:30:47;10.50;99.90
45765;DHT22;31474;45.332;10.230;2022-12-29T12:33:39;10.40;99.90
45765;DHT22;31474;45.332;10.230;2022-12-29T12:45:41;10.70;99.90
45765;DHT22;31474;45.332;10.230;2022-12-29T12:48:31;10.70;99.90
45765;DHT22;31474;45.332;10.230;2022-12-29T12:51:25;10.60;99.90
45765;DHT22;31474;45.332;10.230;2022-12-29T13:00:11;10.50;99.90
45765;DHT22;31474;45.332;10.230;2022-12-29T13:10:50;10.40;99.90
45765;DHT22;31474;45.332;10.230;2022-12-29T13:22:07;10.40;99.90
45765;DHT22;31474;45.332;10.230;2022-12-29T13:27:24;10.40;99.90
45765;DHT22;31474;45.332;10.230;2022-12-29T13:30:00;10.50;99.90
45765;DHT22;31474;45.332;10.230;2022-12-29T13:32:30;10.50;99.90
45765;DHT22;31474;45.332;10.230;2022-12-29T13:37:55;10.50;99.90
45765;DHT22;31474;45.332;10.230;2022-12-29T13:40:24;10.50;99.90
45765;DHT22;31474;45.332;10.230;2022-12-29T13:42:54;10.40;99.90
45765;DHT22;31474;45.332;10.230;2022-12-29T13:45:24;10.40;99.90
45765;DHT22;31474;45.332;10.230;2022-12-29T13:47:59;10.40;99.90
45765;DHT22;31474;45.332;10.230;2022-12-29T13:50:28;10.40;99.90
45765;DHT22;31474;45.332;10.230;2022-12-29T13:55:59;10.40;99.90
45765;DHT22;31474;45.332;10.230;2022-12-29T14:01:03;10.40;99.90
45765;DHT22;31474;45.332;10.230;2022-12-29T14:08:58;10.50;99.90
45765;DHT22;31474;45.332;10.230;2022-12-29T14:11:35;10.50;99.90
45765;DHT22;31474;45.332;10.230;2022-12-29T14:14:27;10.50;99.90
45765;DHT22;31474;45.332;10.230;2022-12-29T14:16:54;10.50;99.90
45765;DHT22;31474;45.332;10.230;2022-12-29T14:19:28;10.50;99.90
45765;DHT22;31474;45.332;10.230;2022-12-29T14:21:58;10.50;99.90
45765;DHT22;31474;45.332;10.230;2022-12-29T14:34:48;10.40;99.90
45765;DHT22;31474;45.332;10.230;2022-12-29T14:37:30;10.40;99.90
45765;DHT22;31474;45.332;10.230;2022-12-29T14:42:32;10.40;99.90
45765;DHT22;31474;45.332;10.230;2022-12-29T14:47:41;10.40;99.90
45765;DHT22;31474;45.332;10.230;2022-12-29T14:52:48;10.30;99.90
45765;DHT22;31474;45.332;10.230;2022-12-29T14:57:44;10.30;99.90
45765;DHT22;31474;45.332;10.230;2022-12-29T15:00:21;10.20;99.90
45765;DHT22;31474;45.332;10.230;2022-12-29T15:02:52;10.20;99.90
45765;DHT22;31474;45.332;10.230;2022-12-29T15:07:58;10.10;99.90
45765;DHT22;31474;45.332;10.230;2022-12-29T15:10:26;10.20;99.90
45765;DHT22;31474;45.332;10.230;2022-12-29T15:13:03;10.20;99.90
45765;DHT22;31474;45.332;10.230;2022-12-29T15:15:37;10.20;99.90
45765;DHT22;31474;45.332;10.230;2022-12-29T15:18:22;10.20;99.90
45765;DHT22;31474;45.332;10.230;2022-12-29T15:21:01;10.10;99.90
45765;DHT22;31474;45.332;10.230;2022-12-29T15:23:28;10.10;99.90
45765;DHT22;31474;45.332;10.230;2022-12-29T15:26:00;10.10;99.90
45765;DHT22;31474;45.332;10.230;2022-12-29T15:28:27;10.00;99.90
45765;DHT22;31474;45.332;10.230;2022-12-29T15:31:20;10.00;99.90
45765;DHT22;31474;45.332;10.230;2022-12-29T15:33:48;10.00;99.90
45765;DHT22;31474;45.332;10.230;2022-12-29T15:38:45;10.00;99.90
45765;DHT22;31474;45.332;10.230;2022-12-29T15:44:35;9.90;99.90
45765;DHT22;31474;45.332;10.230;2022-12-29T15:47:04;9.90;99.90
45765;DHT22;31474;45.332;10.230;2022-12-29T15:49:31;9.90;99.90
45765;DHT22;31474;45.332;10.230;2022-12-29T15:51:57;9.90;99.90
45765;DHT22;31474;45.332;10.230;2022-12-29T15:54:23;9.90;99.90
45765;DHT22;31474;45.332;10.230;2022-12-29T15:56:49;10.00;99.90
45765;DHT22;31474;45.332;10.230;2022-12-29T15:59:27;10.00;99.90
45765;DHT22;31474;45.332;10.230;2022-12-29T16:01:58;10.00;99.90
45765;DHT22;31474;45.332;10.230;2022-12-29T16:04:27;10.00;99.90
45765;DHT22;31474;45.332;10.230;2022-12-29T16:07:04;10.00;99.90
45765;DHT22;31474;45.332;10.230;2022-12-29T16:12:04;10.00;99.90
45765;DHT22;31474;45.332;10.230;2022-12-29T16:14:43;10.00;99.90
45765;DHT22;31474;45.332;10.230;2022-12-29T16:17:14;10.00;99.90
45765;DHT22;31474;45.332;10.230;2022-12-29T16:19:43;10.00;99.90
45765;DHT22;31474;45.332;10.230;2022-12-29T16:22:25;10.00;99.90
45765;DHT22;31474;45.332;10.230;2022-12-29T16:24:56;10.00;99.90
45765;DHT22;31474;45.332;10.230;2022-12-29T16:27:36;9.90;99.90
45765;DHT22;31474;45.332;10.230;2022-12-29T16:30:22;9.90;99.90
45765;DHT22;31474;45.332;10.230;2022-12-29T16:32:50;9.80;99.90
45765;DHT22;31474;45.332;10.230;2022-12-29T16:35:22;9.80;99.90
45765;DHT22;31474;45.332;10.230;2022-12-29T16:38:06;9.90;99.90
45765;DHT22;31474;45.332;10.230;2022-12-29T16:40:33;9.80;99.90
45765;DHT22;31474;45.332;10.230;2022-12-29T16:43:03;9.80;99.90
45765;DHT22;31474;45.332;10.230;2022-12-29T16:50:40;9.80;99.90
45765;DHT22;31474;45.332;10.230;2022-12-29T16:53:24;9.80;99.90
45765;DHT22;31474;45.332;10.230;2022-12-29T16:55:51;9.80;99.90
45765;DHT22;31474;45.332;10.230;2022-12-29T16:58:23;9.80;99.90
45765;DHT22;31474;45.332;10.230;2022-12-29T17:00:56;9.80;99.90
45765;DHT22;31474;45.332;10.230;2022-12-29T17:03:24;9.80;99.90
45765;DHT22;31474;45.332;10.230;2022-12-29T17:05:53;9.90;99.90
45765;DHT22;31474;45.332;10.230;2022-12-29T17:08:20;9.90;99.90
45765;DHT22;31474;45.332;10.230;2022-12-29T17:10:54;9.90;99.90
45765;DHT22;31474;45.332;10.230;2022-12-29T17:13:39;9.90;99.90
45765;DHT22;31474;45.332;10.230;2022-12-29T17:16:06;9.90;99.90
45765;DHT22;31474;45.332;10.230;2022-12-29T17:18:33;9.90;99.90
45765;DHT22;31474;45.332;10.230;2022-12-29T17:20:59;9.90;99.90
45765;DHT22;31474;45.332;10.230;2022-12-29T17:23:24;9.90;99.90
45765;DHT22;31474;45.332;10.230;2022-12-29T17:25:51;9.90;99.90
45765;DHT22;31474;45.332;10.230;2022-12-29T17:28:23;9.90;99.90
45765;DHT22;31474;45.332;10.230;2022-12-29T17:30:51;9.90;99.90
45765;DHT22;31474;45.332;10.230;2022-12-29T17:33:18;9.90;99.90
45765;DHT22;31474;45.332;10.230;2022-12-29T17:35:45;9.80;99.90
45765;DHT22;31474;45.332;10.230;2022-12-29T17:38:22;9.80;99.90
45765;DHT22;31474;45.332;10.230;2022-12-29T17:40:49;9.80;99.90
45765;DHT22;31474;45.332;10.230;2022-12-29T17:43:15;9.70;99.90
45765;DHT22;31474;45.332;10.230;2022-12-29T17:45:42;9.60;99.90
45765;DHT22;31474;45.332;10.230;2022-12-29T17:48:13;9.60;99.90
45765;DHT22;31474;45.332;10.230;2022-12-29T17:50:38;9.70;99.90
45765;DHT22;31474;45.332;10.230;2022-12-29T17:53:09;9.70;99.90
45765;DHT22;31474;45.332;10.230;2022-12-29T17:55:35;9.60;99.90
45765;DHT22;31474;45.332;10.230;2022-12-29T17:58:01;9.60;99.90
45765;DHT22;31474;45.332;10.230;2022-12-29T18:00:28;9.50;99.90
45765;DHT22;31474;45.332;10.230;2022-12-29T18:02:55;9.50;99.90
45765;DHT22;31474;45.332;10.230;2022-12-29T18:05:29;9.40;99.90
45765;DHT22;31474;45.332;10.230;2022-12-29T18:07:57;9.30;99.90
45765;DHT22;31474;45.332;10.230;2022-12-29T18:10:25;9.30;99.90
45765;DHT22;31474;45.332;10.230;2022-12-29T18:12:53;9.20;99.90
45765;DHT22;31474;45.332;10.230;2022-12-29T18:15:29;9.20;99.90
45765;DHT22;31474;45.332;10.230;2022-12-29T18:18:10;9.20;99.90
45765;DHT22;31474;45.332;10.230;2022-12-29T18:20:36;9.10;99.90
45765;DHT22;31474;45.332;10.230;2022-12-29T18:23:02;9.10;99.90
45765;DHT22;31474;45.332;10.230;2022-12-29T18:27:56;9.10;99.90
45765;DHT22;31474;45.332;10.230;2022-12-29T18:30:22;9.10;99.90
45765;DHT22;31474;45.332;10.230;2022-12-29T18:32:48;9.10;99.90
45765;DHT22;31474;45.332;10.230;2022-12-29T18:35:22;9.10;99.90